Time;durP1;ratioP1;P1;durP2;ratioP2;P2;SDS_P1;SDS_P2;PMS_P1;PMS_P2;Temp;Humidity;BMP_temperature;BMP_pressure;BME280_temperature;BME280_humidity;BME280_pressure;Samples;Min_cycle;Max_cycle;Signal;HPM_P1;HPM_P2
2022/09/19 00:00:43;;;;;;;23.27;5.07;;;;;;;9.46;100.00;163037.13;4993347;28;20042;-67
2022/09/19 00:03:09;;;;;;;15.57;4.68;;;;;;;9.39;100.00;163019.63;4994309;28;20030;-67
2022/09/19 00:05:42;;;;;;;20.35;3.70;;;;;;;9.39;100.00;163019.63;4992640;28;20050;-68
2022/09/19 00:08:08;;;;;;;22.35;5.55;;;;;;;9.38;100.00;163016.91;4994074;28;20505;-67
2022/09/19 00:10:39;;;;;;;35.30;5.32;;;;;;;9.35;100.00;163008.81;4993266;28;20038;-67
2022/09/19 00:13:06;;;;;;;24.85;4.82;;;;;;;9.33;100.00;163003.44;4994255;28;20081;-67
2022/09/19 00:15:33;;;;;;;24.27;5.73;;;;;;;9.28;100.00;162989.91;4992892;28;20514;-65
2022/09/19 00:17:58;;;;;;;21.92;5.47;;;;;;;9.28;100.00;162991.31;4994444;28;20023;-66
2022/09/19 00:20:23;;;;;;;23.08;4.63;;;;;;;9.31;100.00;162998.03;4992656;28;20104;-66
2022/09/19 00:25:33;;;;;;;15.10;4.47;;;;;;;9.35;100.00;163008.81;4993258;28;20093;-65
2022/09/19 00:27:58;;;;;;;27.17;7.38;;;;;;;9.38;100.00;163016.91;4993734;28;20430;-66
2022/09/19 00:30:23;;;;;;;26.90;4.53;;;;;;;9.39;100.00;163019.63;4992690;28;20050;-65
2022/09/19 00:32:50;;;;;;;16.33;4.63;;;;;;;9.39;100.00;163019.63;4994238;28;20034;-66
2022/09/19 00:35:15;;;;;;;27.02;7.60;;;;;;;9.37;100.00;163014.22;4992203;28;20547;-67
2022/09/19 00:37:40;;;;;;;19.42;5.35;;;;;;;9.36;100.00;163011.50;4993839;28;20030;-70
2022/09/19 00:40:06;;;;;;;21.90;5.22;;;;;;;9.31;100.00;162998.03;4992591;28;20065;-68
2022/09/19 00:42:33;;;;;;;18.13;3.78;;;;;;;9.31;100.00;162998.03;4993689;28;20026;-68
2022/09/19 00:45:11;;;;;;;22.55;4.63;;;;;;;9.31;100.00;162998.03;4991946;28;20038;-67
2022/09/19 00:47:40;;;;;;;17.65;5.15;;;;;;;9.30;100.00;162995.34;4982436;28;20088;-67
2022/09/19 00:50:12;;;;;;;21.50;5.00;;;;;;;9.26;100.00;162984.56;4991848;28;20437;-67
2022/09/19 00:52:43;;;;;;;14.70;4.93;;;;;;;9.30;100.00;162996.72;4993999;28;20101;-67
2022/09/19 00:55:09;;;;;;;20.42;4.05;;;;;;;9.29;100.00;162992.63;4992111;28;20075;-67
2022/09/19 00:57:46;;;;;;;18.40;4.38;;;;;;;9.29;100.00;162994.00;4993770;28;20030;-67
2022/09/19 01:00:12;;;;;;;24.38;4.63;;;;;;;9.31;100.00;162999.38;4991755;28;20042;-67
2022/09/19 01:02:38;;;;;;;22.65;4.72;;;;;;;9.32;100.00;163000.75;4993534;28;20537;-67
2022/09/19 01:05:06;;;;;;;16.90;4.35;;;;;;;9.31;100.00;162999.38;4990709;28;20138;-66
2022/09/19 01:07:33;;;;;;;24.90;7.20;;;;;;;9.31;100.00;162998.03;4993869;28;20026;-67
2022/09/19 01:09:58;;;;;;;11.95;4.68;;;;;;;9.31;100.00;162998.03;4991700;28;20038;-66
2022/09/19 01:12:47;;;;;;;20.15;5.22;;;;;;;9.30;100.00;162996.72;4993305;28;20557;-67
2022/09/19 01:15:32;;;;;;;27.40;7.80;;;;;;;9.27;100.00;162988.59;4991880;28;20522;-66
2022/09/19 01:18:01;;;;;;;23.10;4.32;;;;;;;9.27;100.00;162987.28;4991287;28;20026;-66
2022/09/19 01:20:26;;;;;;;;;;;;;;;9.20;100.00;162971.03;4992190;28;20058;-66
2022/09/19 01:23:31;;;;;;;19.02;5.05;;;;;;;9.12;100.00;162949.47;4993522;28;19909;-66
2022/09/19 01:26:40;;;;;;;29.17;7.50;;;;;;;9.04;100.00;162927.94;4991376;28;20088;-66
2022/09/19 01:29:20;;;;;;;;;;;;;;;8.99;100.00;162914.41;4991662;28;20489;-66
2022/09/19 01:31:50;;;;;;;24.42;6.75;;;;;;;8.97;100.00;162909.06;4992494;28;19918;-65
2022/09/19 01:34:23;;;;;;;16.20;4.78;;;;;;;8.92;100.00;162895.53;4991691;28;20074;-63
2022/09/19 01:36:58;;;;;;;14.95;5.35;;;;;;;8.91;100.00;162892.81;4993055;28;20367;-63
2022/09/19 01:39:25;;;;;;;19.58;4.65;;;;;;;8.87;100.00;162884.78;4991671;28;20650;-66
2022/09/19 01:41:53;;;;;;;16.42;3.92;;;;;;;8.85;100.00;162879.38;4992668;28;20034;-65
2022/09/19 01:44:23;;;;;;;21.95;6.55;;;;;;;8.83;100.00;162873.94;4991203;28;20042;-65
2022/09/19 01:47:13;;;;;;;13.35;3.53;;;;;;;8.84;100.00;162876.66;4992553;28;20042;-65
2022/09/19 01:49:49;;;;;;;18.80;4.88;;;;;;;8.87;100.00;162884.78;4991329;28;20030;-65
2022/09/19 01:52:49;;;;;;;21.08;4.05;;;;;;;8.89;100.00;162890.19;4992491;28;20366;-65
2022/09/19 01:55:35;;;;;;;19.38;4.45;;;;;;;8.94;100.00;162902.28;4990997;28;20122;-65
2022/09/19 01:58:40;;;;;;;22.13;4.53;;;;;;;9.01;100.00;162919.81;4991922;28;20508;-65
2022/09/19 02:01:16;;;;;;;22.80;4.45;;;;;;;9.08;100.00;162938.69;4990280;28;20050;-65
2022/09/19 02:04:12;;;;;;;22.00;5.45;;;;;;;9.18;100.00;162965.69;4991205;28;20477;-65
2022/09/19 02:06:58;;;;;;;28.67;4.90;;;;;;;9.20;100.00;162969.72;4992453;28;20109;-66
2022/09/19 02:09:38;;;;;;;27.65;4.90;;;;;;;9.20;100.00;162969.72;4990927;28;20065;-65
2022/09/19 02:12:07;;;;;;;18.70;5.63;;;;;;;9.17;100.00;162962.97;4991607;28;20069;-65
2022/09/19 02:14:36;;;;;;;17.65;4.10;;;;;;;9.11;100.00;162946.81;4990689;28;20129;-64
2022/09/19 02:17:06;;;;;;;;;;;;;;;9.08;100.00;162938.69;4992656;28;20125;-65
2022/09/19 02:19:56;;;;;;;21.73;5.68;;;;;;;9.05;100.00;162931.97;4990647;28;20020;-64
2022/09/19 02:22:31;;;;;;;16.00;4.70;;;;;;;9.04;100.00;162927.94;4992161;28;20044;-64
2022/09/19 02:25:02;;;;;;;25.05;5.80;;;;;;;9.03;100.00;162925.22;4990320;28;20518;-64
2022/09/19 02:27:39;;;;;;;14.27;4.25;;;;;;;8.98;100.00;162911.72;4991855;28;20395;-64
2022/09/19 02:30:08;;;;;;;11.05;4.68;;;;;;;8.97;100.00;162910.38;4989954;28;20108;-64
2022/09/19 02:32:35;;;;;;;15.70;4.97;;;;;;;8.95;100.00;162903.66;4992356;28;20147;-64
2022/09/19 02:35:01;;;;;;;13.95;3.67;;;;;;;8.84;100.00;162876.66;4990133;28;20065;-64
2022/09/19 02:37:39;;;;;;;15.68;3.33;;;;;;;8.80;100.00;162865.91;4992132;28;20390;-64
2022/09/19 02:40:05;;;;;;;12.80;3.47;;;;;;;8.74;100.00;162849.72;4990424;28;20398;-64
2022/09/19 02:42:43;;;;;;;23.23;5.10;;;;;;;8.71;100.00;162841.63;4991580;28;20035;-65
2022/09/19 02:45:31;;;;;;;20.95;5.50;;;;;;;8.75;100.00;162852.38;4990133;28;20053;-64
2022/09/19 02:48:26;;;;;;;17.05;4.25;;;;;;;8.85;100.00;162879.38;4991804;28;20030;-64
2022/09/19 02:50:59;;;;;;;15.32;4.85;;;;;;;8.88;100.00;162886.09;4988210;28;20044;-66
2022/09/19 02:53:28;;;;;;;26.27;6.80;;;;;;;8.89;100.00;162890.19;4992025;28;20034;-64
2022/09/19 02:55:57;;;;;;;17.30;4.40;;;;;;;8.85;100.00;162878.03;4989902;28;20064;-65
2022/09/19 02:58:27;;;;;;;10.02;3.30;;;;;;;8.82;100.00;162871.31;4991095;28;20050;-65
2022/09/19 03:00:59;;;;;;;19.27;3.78;;;;;;;8.82;100.00;162871.31;4990555;28;20046;-65
2022/09/19 03:04:11;;;;;;;9.93;3.88;;;;;;;8.82;100.00;162871.31;4990425;28;20077;-62
2022/09/19 03:06:28;;;;;;;14.43;3.97;;;;;;;8.73;100.00;162847.03;4991462;28;20073;-64
2022/09/19 03:08:56;;;;;;;14.55;3.53;;;;;;;8.80;100.00;162865.91;4990306;28;20038;-64
2022/09/19 03:11:24;;;;;;;28.50;5.68;;;;;;;8.83;100.00;162872.63;4991270;28;20370;-64
2022/09/19 03:13:50;;;;;;;12.45;3.33;;;;;;;8.85;100.00;162879.38;4990220;28;20567;-64
2022/09/19 03:16:22;;;;;;;15.95;4.28;;;;;;;8.89;100.00;162890.19;4991177;28;20042;-64
2022/09/19 03:18:55;;;;;;;34.72;7.97;;;;;;;8.95;100.00;162903.66;4989964;28;20049;-64
2022/09/19 03:21:23;;;;;;;11.27;2.88;;;;;;;8.96;100.00;162906.34;4992008;28;20038;-64
2022/09/19 03:23:56;;;;;;;29.42;6.07;;;;;;;9.03;100.00;162925.22;4989985;28;20049;-64
2022/09/19 03:26:25;;;;;;;16.13;5.43;;;;;;;9.12;100.00;162949.47;4991130;28;20113;-65
2022/09/19 03:28:50;;;;;;;19.13;4.28;;;;;;;9.18;100.00;162965.69;4991813;28;20045;-64
2022/09/19 03:31:17;;;;;;;15.32;4.20;;;;;;;9.25;100.00;162981.84;4994748;28;20552;-66
2022/09/19 03:33:42;;;;;;;25.50;5.53;;;;;;;9.33;100.00;163003.44;4993879;28;20033;-66
2022/09/19 03:36:08;;;;;;;16.05;4.90;;;;;;;9.43;100.00;163030.38;4995131;28;20034;-66
2022/09/19 03:38:45;;;;;;;12.05;4.00;;;;;;;9.48;100.00;163043.91;4994052;28;20026;-65
2022/09/19 03:41:16;;;;;;;16.58;4.20;;;;;;;9.55;100.00;163060.09;4994664;28;20448;-65
2022/09/19 03:43:42;;;;;;;22.15;6.28;;;;;;;9.57;100.00;163066.81;4993756;28;20125;-65
2022/09/19 03:46:10;;;;;;;12.32;3.35;;;;;;;9.65;100.00;163087.03;4994952;28;20113;-65
2022/09/19 03:48:36;;;;;;;21.10;5.00;;;;;;;9.69;100.00;163099.19;4993145;28;20030;-64
2022/09/19 03:51:01;;;;;;;13.23;4.15;;;;;;;9.70;100.00;163100.56;4995067;28;20018;-66
2022/09/19 03:53:27;;;;;;;21.15;4.25;;;;;;;9.69;100.00;163099.19;4993399;28;20477;-66
2022/09/19 03:55:54;;;;;;;20.48;4.13;;;;;;;9.68;100.00;163096.47;4994204;28;20478;-66
2022/09/19 03:58:19;;;;;;;14.40;3.70;;;;;;;9.66;100.00;163089.75;4994948;28;20058;-66
2022/09/19 04:00:45;;;;;;;19.30;4.32;;;;;;;9.64;100.00;163084.38;4993247;28;20045;-66
2022/09/19 04:03:10;;;;;;;19.70;6.28;;;;;;;9.63;100.00;163081.69;4994085;28;20410;-66
2022/09/19 04:05:36;;;;;;;24.83;4.10;;;;;;;9.62;100.00;163078.97;4993416;28;20057;-68
2022/09/19 04:08:01;;;;;;;18.75;6.25;;;;;;;9.58;100.00;163068.16;4994299;28;20080;-66
2022/09/19 04:10:27;;;;;;;20.15;4.85;;;;;;;9.51;100.00;163051.97;4992957;28;20520;-67
2022/09/19 04:12:52;;;;;;;14.23;3.70;;;;;;;9.44;100.00;163033.09;4993768;28;20113;-67
2022/09/19 04:15:17;;;;;;;15.05;4.50;;;;;;;9.40;100.00;163022.31;4992691;28;20088;-66
2022/09/19 04:17:43;;;;;;;20.92;4.75;;;;;;;9.35;100.00;163010.19;4993543;28;20030;-66
2022/09/19 04:20:10;;;;;;;25.92;5.72;;;;;;;9.31;100.00;162998.03;4992546;28;20042;-66
2022/09/19 04:22:37;;;;;;;20.00;5.30;;;;;;;9.27;100.00;162987.28;4994058;28;20496;-66
2022/09/19 04:25:04;;;;;;;19.27;4.55;;;;;;;9.24;100.00;162980.47;4991738;28;20038;-66
2022/09/19 04:27:29;;;;;;;19.83;5.97;;;;;;;9.24;100.00;162979.16;4994726;28;20033;-66
2022/09/19 04:29:55;;;;;;;23.35;7.93;;;;;;;9.24;100.00;162980.47;4992802;28;20494;-66
2022/09/19 04:32:21;;;;;;;22.95;5.25;;;;;;;9.25;100.00;162981.84;4994019;28;20382;-66
2022/09/19 04:34:47;;;;;;;18.00;4.45;;;;;;;9.27;100.00;162988.59;4992788;28;20046;-66
2022/09/19 04:37:15;;;;;;;17.38;4.28;;;;;;;9.26;100.00;162984.56;4994143;28;20105;-67
2022/09/19 04:39:41;;;;;;;11.60;4.72;;;;;;;9.27;100.00;162987.28;4990664;28;20471;-66
2022/09/19 04:42:06;;;;;;;19.63;5.43;;;;;;;9.27;100.00;162987.28;4992933;28;20029;-66
2022/09/19 04:44:31;;;;;;;26.17;5.68;;;;;;;9.28;100.00;162989.91;4992446;28;20042;-67
2022/09/19 04:46:57;;;;;;;12.77;4.05;;;;;;;9.23;100.00;162976.44;4992965;28;20030;-65
2022/09/19 04:49:22;;;;;;;14.18;5.50;;;;;;;9.30;100.00;162995.34;4992523;28;20046;-65
2022/09/19 04:51:48;;;;;;;18.73;4.60;;;;;;;9.32;100.00;163000.75;4994050;28;20026;-65
2022/09/19 04:54:14;;;;;;;19.60;4.43;;;;;;;9.33;100.00;163003.44;4992232;28;20057;-65
2022/09/19 04:56:44;;;;;;;13.40;4.50;;;;;;;9.33;100.00;163003.44;4993594;28;20511;-65
2022/09/19 04:59:09;;;;;;;9.73;3.72;;;;;;;9.28;100.00;162989.91;4992253;28;20065;-65
2022/09/19 05:01:35;;;;;;;10.68;4.18;;;;;;;9.24;100.00;162980.47;4993738;28;20070;-65
2022/09/19 05:04:03;;;;;;;32.28;7.57;;;;;;;9.20;100.00;162971.03;4992158;28;20444;-63
2022/09/19 05:06:29;;;;;;;14.88;4.70;;;;;;;9.18;100.00;162965.69;4993826;28;20062;-67
2022/09/19 05:08:57;;;;;;;14.38;3.55;;;;;;;9.16;100.00;162960.28;4992378;28;20034;-63
2022/09/19 05:11:23;;;;;;;13.57;4.88;;;;;;;9.12;100.00;162949.47;4993659;28;20026;-63
2022/09/19 05:13:49;;;;;;;10.70;3.55;;;;;;;9.10;100.00;162944.09;4992131;28;20154;-63
2022/09/19 05:16:15;;;;;;;15.10;4.93;;;;;;;9.06;100.00;162933.28;4993334;28;20019;-63
2022/09/19 05:18:41;;;;;;;19.85;5.30;;;;;;;9.02;100.00;162923.84;4991596;28;20084;-63
2022/09/19 05:21:11;;;;;;;17.42;3.55;;;;;;;9.00;100.00;162917.13;4993254;28;20030;-60
2022/09/19 05:23:37;;;;;;;16.60;5.38;;;;;;;8.97;100.00;162909.06;4992225;28;20393;-60
2022/09/19 05:26:05;;;;;;;13.70;4.85;;;;;;;8.93;100.00;162899.63;4992685;28;20033;-61
2022/09/19 05:28:31;;;;;;;21.33;6.30;;;;;;;8.86;100.00;162882.06;4991879;28;20030;-62
2022/09/19 05:30:56;;;;;;;18.98;5.78;;;;;;;8.84;100.00;162875.34;4992863;28;20512;-63
2022/09/19 05:33:29;;;;;;;11.02;4.07;;;;;;;8.81;100.00;162868.59;4993062;28;20470;-63
2022/09/19 05:36:00;;;;;;;19.13;4.68;;;;;;;8.78;100.00;162860.50;4992096;28;20062;-63
2022/09/19 05:38:28;;;;;;;18.30;4.32;;;;;;;8.78;100.00;162860.50;4992003;28;20057;-61
2022/09/19 05:40:54;;;;;;;;;;;;;;;8.79;100.00;162863.19;4993252;28;20173;-63
2022/09/19 05:43:20;;;;;;;16.73;5.32;;;;;;;8.77;100.00;162857.78;4992864;28;20358;-63
2022/09/19 05:45:46;;;;;;;17.73;5.80;;;;;;;8.76;100.00;162855.09;4991548;28;20046;-63
2022/09/19 05:48:12;;;;;;;9.05;3.42;;;;;;;8.77;100.00;162856.47;4992048;28;20049;-63
2022/09/19 05:50:37;;;;;;;21.05;6.22;;;;;;;8.80;100.00;162865.91;4991305;28;20050;-63
2022/09/19 05:55:47;;;;;;;19.98;4.95;;;;;;;8.80;100.00;162865.91;4991118;28;20513;-63
2022/09/19 05:58:13;;;;;;;25.83;5.03;;;;;;;8.80;100.00;162865.91;4992706;28;20014;-63
2022/09/19 06:00:38;;;;;;;15.77;5.68;;;;;;;8.79;100.00;162863.19;4991287;28;20096;-63
2022/09/19 06:03:06;;;;;;;32.25;6.88;;;;;;;8.79;100.00;162863.19;4991905;28;20030;-63
2022/09/19 06:05:38;;;;;;;16.55;4.15;;;;;;;8.81;100.00;162868.59;4991054;28;20038;-63
2022/09/19 06:08:04;;;;;;;29.17;5.82;;;;;;;8.87;100.00;162884.78;4992612;28;20018;-63
2022/09/19 06:10:33;;;;;;;18.55;5.00;;;;;;;8.93;100.00;162898.25;4990570;28;20114;-63
2022/09/19 06:12:59;;;;;;;20.85;3.70;;;;;;;9.01;100.00;162921.16;4992233;28;20108;-63
2022/09/19 06:15:24;;;;;;;12.00;4.10;;;;;;;9.09;100.00;162941.41;4990996;28;20046;-63
2022/09/19 06:17:56;;;;;;;13.52;5.68;;;;;;;9.21;100.00;162972.41;4991965;28;20022;-63
2022/09/19 06:20:22;;;;;;;14.68;5.65;;;;;;;9.35;100.00;163008.81;4990941;28;20462;-63
2022/09/19 06:22:47;;;;;;;23.02;7.40;;;;;;;9.44;100.00;163031.75;4992247;28;20034;-63
2022/09/19 06:25:13;;;;;;;10.77;3.92;;;;;;;9.55;100.00;163060.09;4990273;28;20038;-63
2022/09/19 06:27:41;;;;;;;15.38;3.85;;;;;;;9.66;100.00;163091.13;4992460;28;20034;-63
2022/09/19 06:30:07;;;;;;;13.82;4.65;;;;;;;9.71;100.00;163103.25;4990321;28;20462;-63
2022/09/19 06:32:32;;;;;;;13.27;4.55;;;;;;;9.84;100.00;163136.97;4990239;28;20026;-63
2022/09/19 06:34:58;;;;;;;22.63;4.28;;;;;;;9.96;100.00;163168.00;4990800;28;20041;-63
2022/09/19 06:37:23;;;;;;;17.23;5.50;;;;;;;10.05;100.00;163192.28;4991772;28;20093;-63
2022/09/19 06:39:48;;;;;;;21.95;4.75;;;;;;;10.21;100.00;163232.78;4989853;28;20039;-63
2022/09/19 06:42:14;;;;;;;15.63;5.13;;;;;;;10.35;100.00;163270.56;4991675;28;20035;-63
2022/09/19 06:44:39;;;;;;;25.40;7.30;;;;;;;10.45;100.00;163297.63;4990478;28;20238;-63
2022/09/19 06:47:06;;;;;;;23.73;6.75;;;;;;;10.54;100.00;163320.56;4991090;28;20036;-63
2022/09/19 06:49:31;;;;;;;17.02;6.43;;;;;;;10.67;100.00;163354.31;4990459;28;20449;-63
2022/09/19 06:51:57;;;;;;;16.20;4.15;;;;;;;10.73;100.00;163370.50;4991233;28;20022;-63
2022/09/19 06:54:22;;;;;;;20.08;5.30;;;;;;;10.81;100.00;163390.72;4990249;28;20100;-63
2022/09/19 06:56:49;;;;;;;20.38;7.28;;;;;;;10.95;100.00;163427.19;4991903;28;20022;-63
2022/09/19 06:59:14;;;;;;;30.60;5.50;;;;;;;11.09;100.00;163465.00;4990199;28;20038;-63
2022/09/19 07:01:40;;;;;;;24.38;4.43;;;;;;;11.20;100.00;163492.03;4991203;28;20393;-63
2022/09/19 07:04:05;;;;;;;18.77;5.88;;;;;;;11.28;100.00;163513.63;4989433;28;20038;-64
2022/09/19 07:06:34;;;;;;;38.17;6.72;;;;;;;11.40;100.00;163544.66;4991865;28;20382;-61
2022/09/19 07:09:06;;;;;;;22.52;6.05;;;;;;;11.50;100.00;163571.69;4989937;28;20386;-61
2022/09/19 07:11:32;;;;;;;23.23;5.07;;;;;;;11.62;100.00;163601.38;4991512;28;20015;-61
2022/09/19 07:13:58;;;;;;;21.90;4.50;;;;;;;11.67;100.00;163616.22;4990065;28;20045;-61
2022/09/19 07:16:23;;;;;;;9.98;3.45;;;;;;;11.80;100.00;163650.03;4991241;28;20023;-61
2022/09/19 07:18:48;;;;;;;17.38;5.07;;;;;;;11.91;100.00;163678.38;4990549;28;20042;-61
2022/09/19 07:21:14;;;;;;;10.63;3.90;;;;;;;12.04;100.00;163713.56;4991391;28;20872;-64
2022/09/19 07:23:39;;;;;;;17.13;3.30;;;;;;;12.12;100.00;163732.47;4989952;28;20065;-64
2022/09/19 07:26:05;;;;;;;13.40;3.55;;;;;;;12.22;100.00;163759.50;4991208;28;20026;-64
2022/09/19 07:28:31;;;;;;;11.73;2.47;;;;;;;12.38;100.00;163802.75;4990300;28;20036;-64
2022/09/19 07:31:00;;;;;;;17.98;4.05;;;;;;;12.44;100.00;163817.59;4990748;28;20043;-61
2022/09/19 07:33:25;;;;;;;10.30;2.70;;;;;;;12.67;100.00;163878.44;4991447;28;20103;-61
2022/09/19 07:35:53;;;;;;;13.07;3.75;;;;;;;13.02;100.00;163970.31;4970059;28;22495;-61
2022/09/19 07:38:21;;;;;;;16.40;4.10;;;;;;;13.66;100.00;164135.34;4971562;28;20418;-61
2022/09/19 07:40:47;;;;;;;15.90;3.47;;;;;;;14.64;100.00;164393.72;4989584;28;20038;-61
2022/09/19 07:43:14;;;;;;;11.27;3.15;;;;;;;15.54;100.00;164629.25;4991327;28;20443;-61
2022/09/19 07:45:50;;;;;;;15.80;4.80;;;;;;;16.11;100.00;164779.63;4989428;28;20093;-61
2022/09/19 07:48:17;;;;;;;17.50;3.70;;;;;;;16.17;100.00;164794.47;4991527;28;20035;-61
2022/09/19 07:50:43;;;;;;;9.85;3.30;;;;;;;16.40;100.00;164855.47;4989669;28;20584;-61
2022/09/19 07:53:17;;;;;;;6.07;2.65;;;;;;;16.15;100.00;164790.44;4990817;28;20034;-61
2022/09/19 07:55:47;;;;;;;13.48;3.92;;;;;;;16.02;100.00;164755.22;4989797;28;20038;-60
2022/09/19 07:58:12;;;;;;;9.23;1.80;;;;;;;15.69;100.00;164669.88;4991235;28;20436;-61
2022/09/19 08:00:39;;;;;;;13.95;5.10;;;;;;;15.47;100.00;164611.66;4989406;28;20046;-61
2022/09/19 08:03:08;;;;;;;7.97;2.00;;;;;;;15.47;100.00;164610.31;4991026;28;20113;-61
2022/09/19 08:05:37;;;;;;;12.98;3.35;;;;;;;15.68;100.00;164665.78;4989897;28;20042;-61
2022/09/19 08:08:02;;;;;;;;;;;;;;;15.83;100.00;164706.47;4991162;28;20469;-61
2022/09/19 08:10:28;;;;;;;12.18;3.75;;;;;;;16.00;100.00;164751.19;4989619;28;19920;-61
2022/09/19 08:12:58;;;;;;;13.07;3.00;;;;;;;16.14;100.00;164787.72;4991031;28;20475;-61
2022/09/19 08:15:23;;;;;;;10.98;3.03;;;;;;;16.30;100.00;164828.34;4991689;28;20042;-60
2022/09/19 08:17:59;;;;;;;10.65;3.15;;;;;;;16.51;100.00;164883.91;4994545;28;20063;-61
2022/09/19 08:20:38;;;;;;;6.03;2.58;;;;;;;16.81;100.00;164963.81;4993255;28;20042;-61
2022/09/19 08:23:06;;;;;;;19.63;5.63;;;;;;;16.88;100.00;164980.06;4994111;28;20474;-61
2022/09/19 08:25:33;;;;;;;12.05;3.88;;;;;;;16.84;100.00;164969.25;4992883;28;20133;-61
2022/09/19 08:27:59;;;;;;;12.13;2.47;;;;;;;16.61;100.00;164910.97;4994105;28;20029;-61
2022/09/19 08:30:29;;;;;;;7.55;2.13;;;;;;;16.38;100.00;164850.03;4992594;28;20414;-62
2022/09/19 08:32:56;;;;;;;9.90;3.13;;;;;;;16.14;100.00;164787.72;4994557;28;20375;-61
2022/09/19 08:35:22;;;;;;;9.52;2.05;;;;;;;16.05;100.00;164763.31;4993025;28;20537;-61
2022/09/19 08:37:56;;;;;;;8.73;2.35;;;;;;;15.91;100.00;164725.41;4994011;28;20538;-61
2022/09/19 08:40:28;;;;;;;9.27;3.92;;;;;;;15.90;100.00;164722.75;4992786;28;20053;-61
2022/09/19 08:43:14;;;;;;;6.93;1.83;;;;;;;15.82;100.00;164703.69;4994317;28;20029;-61
2022/09/19 08:46:01;;;;;;;11.18;3.65;;;;;;;15.88;100.00;164717.31;4992218;28;20035;-61
2022/09/19 08:48:36;;;;;;;16.10;3.75;;;;;;;15.96;100.00;164739.00;4992943;28;20112;-60
2022/09/19 08:51:10;;;;;;;11.82;4.97;;;;;;;16.07;100.00;164768.75;4993741;28;20153;-61
2022/09/19 08:53:43;;;;;;;9.88;3.15;;;;;;;16.21;100.00;164803.97;4992617;28;20609;-60
2022/09/19 08:56:13;;;;;;;14.98;4.30;;;;;;;16.34;100.00;164839.22;4994049;28;20022;-61
2022/09/19 08:58:45;;;;;;;11.52;2.70;;;;;;;16.52;100.00;164885.22;4992308;28;20026;-61
2022/09/19 09:01:15;;;;;;;17.65;4.10;;;;;;;16.65;100.00;164920.44;4993827;28;20058;-61
2022/09/19 09:03:57;;;;;;;9.82;4.30;;;;;;;16.42;100.00;164859.50;4992675;28;20026;-61
2022/09/19 09:06:35;;;;;;;7.68;2.30;;;;;;;16.39;100.00;164851.38;4993639;28;20035;-61
2022/09/19 09:09:11;;;;;;;7.97;2.38;;;;;;;16.62;100.00;164912.34;4992362;28;20084;-61
2022/09/19 09:12:01;;;;;;;15.57;3.55;;;;;;;16.90;100.00;164985.50;4993369;28;20482;-61
2022/09/19 09:14:40;;;;;;;11.25;4.10;;;;;;;17.21;100.00;165066.84;4991671;28;20046;-61
2022/09/19 09:17:26;;;;;;;8.55;2.58;;;;;;;17.22;100.00;165069.56;4993249;28;20449;-61
2022/09/19 09:20:08;;;;;;;13.85;2.67;;;;;;;17.10;100.00;165039.72;4992048;28;20042;-60
2022/09/19 09:22:39;;;;;;;6.32;2.85;;;;;;;17.02;100.00;165016.72;4993079;28;20466;-61
2022/09/19 09:25:16;;;;;;;13.68;4.53;;;;;;;16.88;100.00;164980.06;4992014;28;20061;-61
2022/09/19 09:27:56;;;;;;;11.40;3.92;;;;;;;16.67;100.00;164924.53;4992916;28;20453;-61
2022/09/19 09:30:22;;;;;;;6.40;1.67;;;;;;;16.32;100.00;164833.78;4991335;28;20134;-61
2022/09/19 09:32:53;;;;;;;10.40;4.40;;;;;;;16.00;100.00;164749.81;4993096;28;20083;-61
2022/09/19 09:35:30;;;;;;;10.57;1.98;;;;;;;16.31;100.00;164831.06;4991600;28;20045;-61
2022/09/19 09:38:04;;;;;;;11.57;2.28;;;;;;;16.68;100.00;164928.59;4992653;28;20026;-61
2022/09/19 09:43:59;;;;;;;11.98;1.77;;;;;;;16.71;100.00;164936.75;4982709;28;20441;-61
2022/09/19 09:46:43;;;;;;;6.53;2.63;;;;;;;16.81;100.00;164963.81;4993163;28;20026;-61
2022/09/19 09:49:12;;;;;;;7.35;2.53;;;;;;;16.95;100.00;165000.47;4991449;28;20117;-61
2022/09/19 09:51:50;;;;;;;14.40;3.78;;;;;;;17.00;100.00;165012.66;4992181;28;20050;-60
2022/09/19 09:57:45;;;;;;;13.63;3.92;;;;;;;17.05;100.00;165026.19;4992793;28;20064;-61
2022/09/19 10:03:35;;;;;;;8.50;3.22;;;;;;;17.56;100.00;165159.00;4992646;28;20076;-60
2022/09/19 10:06:15;;;;;;;8.63;3.33;;;;;;;17.88;100.00;165244.38;4990699;28;20058;-61
2022/09/19 10:09:02;;;;;;;8.70;2.08;;;;;;;17.91;100.00;165251.16;4986750;28;20023;-61
2022/09/19 10:11:48;;;;;;;8.30;3.70;;;;;;;18.00;100.00;165275.59;4992388;28;20445;-61
2022/09/19 10:14:22;;;;;;;6.53;2.22;;;;;;;18.06;100.00;165291.88;4989544;28;20043;-61
2022/09/19 10:16:48;;;;;;;8.27;2.33;;;;;;;17.86;100.00;165237.59;4992544;28;20089;-61
2022/09/19 10:19:27;;;;;;;5.85;2.95;;;;;;;17.36;100.00;165107.50;4990708;28;20053;-63
2022/09/19 10:21:54;;;;;;;6.53;3.30;;;;;;;17.05;100.00;165026.19;4991593;28;20092;-61
2022/09/19 10:24:45;;;;;;;20.83;5.07;;;;;;;16.97;100.00;165004.50;4989455;28;20120;-60
2022/09/19 10:27:23;;;;;;;10.43;1.80;;;;;;;17.17;100.00;165055.97;4990691;28;20033;-60
2022/09/19 10:29:57;;;;;;;12.88;3.75;;;;;;;17.22;100.00;165069.56;4989108;28;20158;-60
2022/09/19 10:32:25;;;;;;;8.82;2.15;;;;;;;17.54;100.00;165153.56;4990799;28;20406;-60
2022/09/19 10:34:52;;;;;;;9.30;3.53;;;;;;;17.89;100.00;165247.09;4995953;28;20042;-60
2022/09/19 10:37:21;;;;;;;11.88;3.50;;;;;;;18.09;100.00;165298.69;5011193;28;20037;-60
2022/09/19 10:39:48;;;;;;;8.48;3.00;;;;;;;18.01;100.00;165278.34;5009383;28;20521;-61
2022/09/19 10:42:36;;;;;;;5.40;2.03;;;;;;;18.06;100.00;165291.88;5011059;28;20528;-60
2022/09/19 10:45:06;;;;;;;;;;;;;;;18.32;100.00;165359.69;5010921;28;20128;-60
2022/09/19 10:47:36;;;;;;;7.00;1.88;;;;;;;18.46;100.00;165394.94;5011609;28;20364;-61
2022/09/19 10:50:02;;;;;;;5.15;1.42;;;;;;;18.15;100.00;165313.56;5009461;28;20030;-61
2022/09/19 10:52:33;;;;;;;16.40;4.95;;;;;;;17.96;100.00;165264.78;5011567;28;20032;-61
2022/09/19 10:55:01;;;;;;;4.20;2.10;;;;;;;17.81;100.00;165225.41;5010010;28;20053;-61
2022/09/19 10:57:48;;;;;;;6.35;1.55;;;;;;;18.07;100.00;165294.59;5011432;28;20029;-61
2022/09/19 11:00:29;;;;;;;5.22;1.60;;;;;;;18.17;100.00;165319.00;5009944;28;20057;-61
2022/09/19 11:03:00;;;;;;;9.05;2.63;;;;;;;18.11;100.00;165304.06;5011241;28;20436;-60
2022/09/19 11:05:29;;;;;;;6.85;2.03;;;;;;;17.97;100.00;165267.50;5009776;28;20619;-61
2022/09/19 11:07:57;;;;;;;8.43;3.15;;;;;;;17.89;100.00;165245.75;5011498;28;20049;-60
2022/09/19 11:10:41;;;;;;;6.47;2.27;;;;;;;18.20;100.00;165327.16;5010091;28;20052;-60
2022/09/19 11:13:23;;;;;;;6.53;2.20;;;;;;;18.51;100.00;165409.88;5010544;28;20033;-61
2022/09/19 11:15:55;;;;;;;6.82;1.80;;;;;;;18.61;100.00;165435.63;5009953;28;20421;-60
2022/09/19 11:18:35;;;;;;;6.22;2.13;;;;;;;18.36;100.00;165370.50;5011245;28;20485;-60
2022/09/19 11:21:31;;;;;;;7.95;2.45;;;;;;;18.65;100.00;165446.44;5009188;28;20049;-60
2022/09/19 11:24:13;;;;;;;4.63;1.52;;;;;;;18.56;100.00;165422.06;5010992;28;20033;-60
2022/09/19 11:26:54;;;;;;;8.55;3.28;;;;;;;18.38;100.00;165375.94;5009528;28;20073;-61
2022/09/19 11:29:22;;;;;;;5.95;2.15;;;;;;;18.44;100.00;165390.88;5009543;28;20029;-61
2022/09/19 11:32:03;;;;;;;7.43;2.45;;;;;;;18.30;100.00;165352.91;5010794;28;20128;-61
2022/09/19 11:35:07;;;;;;;6.65;1.30;;;;;;;17.88;100.00;165243.03;5009609;28;20038;-61
2022/09/19 11:37:41;;;;;;;9.55;3.95;;;;;;;18.02;100.00;165281.06;5011174;28;20030;-61
2022/09/19 11:40:35;;;;;;;10.38;3.42;;;;;;;18.26;100.00;165343.44;5009354;28;20042;-61
2022/09/19 11:43:14;;;;;;;6.45;2.05;;;;;;;18.62;100.00;165438.34;5010830;28;20033;-60
2022/09/19 11:45:42;;;;;;;13.65;2.67;;;;;;;18.76;100.00;165474.97;5009680;28;20038;-61
2022/09/19 11:48:33;;;;;;;8.90;1.55;;;;;;;19.01;100.00;165541.47;5010770;28;20061;-61
2022/09/19 11:51:04;;;;;;;5.18;2.15;;;;;;;18.89;100.00;165508.84;5012069;28;20092;-64